sensor_id;sensor_type;location;lat;lon;timestamp;P1;durP1;ratioP1;P2;durP2;ratioP2
30697;SDS011;17448;47.200;10.902;2023-07-29T00:02:12;4.28;;;2.33;;
30697;SDS011;17448;47.200;10.902;2023-07-29T00:04:38;3.17;;;2.00;;
30697;SDS011;17448;47.200;10.902;2023-07-29T00:07:04;3.58;;;2.10;;
30697;SDS011;17448;47.200;10.902;2023-07-29T00:09:31;4.82;;;2.15;;
30697;SDS011;17448;47.200;10.902;2023-07-29T00:11:57;3.63;;;2.10;;
30697;SDS011;17448;47.200;10.902;2023-07-29T00:14:23;3.65;;;2.10;;
30697;SDS011;17448;47.200;10.902;2023-07-29T00:16:49;2.65;;;2.00;;
30697;SDS011;17448;47.200;10.902;2023-07-29T00:19:16;5.18;;;2.65;;
30697;SDS011;17448;47.200;10.902;2023-07-29T00:21:42;6.72;;;2.30;;
30697;SDS011;17448;47.200;10.902;2023-07-29T00:24:08;3.78;;;2.22;;
30697;SDS011;17448;47.200;10.902;2023-07-29T00:26:34;4.63;;;2.35;;
30697;SDS011;17448;47.200;10.902;2023-07-29T00:29:00;3.50;;;2.45;;
30697;SDS011;17448;47.200;10.902;2023-07-29T00:31:27;4.57;;;2.28;;
30697;SDS011;17448;47.200;10.902;2023-07-29T00:33:53;3.55;;;2.40;;
30697;SDS011;17448;47.200;10.902;2023-07-29T00:36:19;4.78;;;2.53;;
30697;SDS011;17448;47.200;10.902;2023-07-29T00:38:45;6.72;;;2.92;;
30697;SDS011;17448;47.200;10.902;2023-07-29T00:41:12;5.55;;;2.30;;
30697;SDS011;17448;47.200;10.902;2023-07-29T00:43:40;3.58;;;2.13;;
30697;SDS011;17448;47.200;10.902;2023-07-29T00:46:07;6.40;;;2.47;;
30697;SDS011;17448;47.200;10.902;2023-07-29T00:48:35;4.43;;;2.42;;
30697;SDS011;17448;47.200;10.902;2023-07-29T00:51:01;5.53;;;2.75;;
30697;SDS011;17448;47.200;10.902;2023-07-29T00:53:28;4.10;;;2.30;;
30697;SDS011;17448;47.200;10.902;2023-07-29T00:55:54;5.18;;;2.40;;
30697;SDS011;17448;47.200;10.902;2023-07-29T00:58:20;6.22;;;1.98;;
30697;SDS011;17448;47.200;10.902;2023-07-29T01:00:46;9.93;;;2.50;;
30697;SDS011;17448;47.200;10.902;2023-07-29T01:03:13;7.47;;;2.72;;
30697;SDS011;17448;47.200;10.902;2023-07-29T01:05:42;3.33;;;2.40;;
30697;SDS011;17448;47.200;10.902;2023-07-29T01:08:15;4.25;;;2.33;;
30697;SDS011;17448;47.200;10.902;2023-07-29T01:10:51;4.45;;;2.40;;
30697;SDS011;17448;47.200;10.902;2023-07-29T01:15:55;4.18;;;2.40;;
30697;SDS011;17448;47.200;10.902;2023-07-29T01:18:40;3.97;;;2.50;;
30697;SDS011;17448;47.200;10.902;2023-07-29T01:21:09;5.00;;;2.90;;
30697;SDS011;17448;47.200;10.902;2023-07-29T01:23:37;2.88;;;2.03;;
30697;SDS011;17448;47.200;10.902;2023-07-29T01:26:04;6.53;;;2.53;;
30697;SDS011;17448;47.200;10.902;2023-07-29T01:28:30;4.82;;;2.05;;
30697;SDS011;17448;47.200;10.902;2023-07-29T01:31:01;4.47;;;2.83;;
30697;SDS011;17448;47.200;10.902;2023-07-29T01:33:30;5.70;;;2.65;;
30697;SDS011;17448;47.200;10.902;2023-07-29T01:36:01;4.57;;;2.67;;
30697;SDS011;17448;47.200;10.902;2023-07-29T01:38:38;5.40;;;2.50;;
30697;SDS011;17448;47.200;10.902;2023-07-29T01:41:06;4.25;;;2.60;;
30697;SDS011;17448;47.200;10.902;2023-07-29T01:43:33;5.50;;;2.63;;
30697;SDS011;17448;47.200;10.902;2023-07-29T01:46:02;4.80;;;2.75;;
30697;SDS011;17448;47.200;10.902;2023-07-29T01:48:28;5.65;;;2.40;;
30697;SDS011;17448;47.200;10.902;2023-07-29T01:50:57;4.43;;;2.97;;
30697;SDS011;17448;47.200;10.902;2023-07-29T01:53:23;3.72;;;2.30;;
30697;SDS011;17448;47.200;10.902;2023-07-29T01:55:51;4.65;;;2.53;;
30697;SDS011;17448;47.200;10.902;2023-07-29T01:58:17;4.97;;;2.30;;
30697;SDS011;17448;47.200;10.902;2023-07-29T02:00:46;3.75;;;2.40;;
30697;SDS011;17448;47.200;10.902;2023-07-29T02:03:13;5.78;;;2.42;;
30697;SDS011;17448;47.200;10.902;2023-07-29T02:05:39;5.82;;;2.80;;
30697;SDS011;17448;47.200;10.902;2023-07-29T02:08:07;4.05;;;2.22;;
30697;SDS011;17448;47.200;10.902;2023-07-29T02:10:33;5.07;;;2.90;;
30697;SDS011;17448;47.200;10.902;2023-07-29T02:12:59;6.68;;;2.65;;
30697;SDS011;17448;47.200;10.902;2023-07-29T02:15:25;7.68;;;2.40;;
30697;SDS011;17448;47.200;10.902;2023-07-29T02:17:52;4.85;;;2.70;;
30697;SDS011;17448;47.200;10.902;2023-07-29T02:20:18;3.25;;;2.30;;
30697;SDS011;17448;47.200;10.902;2023-07-29T02:22:44;5.20;;;2.20;;
30697;SDS011;17448;47.200;10.902;2023-07-29T02:25:11;5.18;;;2.72;;
30697;SDS011;17448;47.200;10.902;2023-07-29T02:27:37;5.32;;;2.78;;
30697;SDS011;17448;47.200;10.902;2023-07-29T02:30:03;10.65;;;3.40;;
30697;SDS011;17448;47.200;10.902;2023-07-29T02:32:30;4.82;;;2.67;;
30697;SDS011;17448;47.200;10.902;2023-07-29T02:34:56;7.65;;;2.80;;
30697;SDS011;17448;47.200;10.902;2023-07-29T02:37:22;3.85;;;2.50;;
30697;SDS011;17448;47.200;10.902;2023-07-29T02:39:49;5.20;;;2.75;;
30697;SDS011;17448;47.200;10.902;2023-07-29T02:42:15;7.32;;;2.83;;
30697;SDS011;17448;47.200;10.902;2023-07-29T02:44:41;3.33;;;2.45;;
30697;SDS011;17448;47.200;10.902;2023-07-29T02:47:07;9.43;;;3.60;;
30697;SDS011;17448;47.200;10.902;2023-07-29T02:49:34;5.55;;;3.05;;
30697;SDS011;17448;47.200;10.902;2023-07-29T02:52:00;4.85;;;2.47;;
30697;SDS011;17448;47.200;10.902;2023-07-29T02:54:26;6.05;;;3.67;;
30697;SDS011;17448;47.200;10.902;2023-07-29T02:56:53;5.82;;;2.30;;
30697;SDS011;17448;47.200;10.902;2023-07-29T02:59:19;6.95;;;3.25;;
30697;SDS011;17448;47.200;10.902;2023-07-29T03:01:45;3.75;;;2.40;;
30697;SDS011;17448;47.200;10.902;2023-07-29T03:04:12;3.15;;;2.50;;
30697;SDS011;17448;47.200;10.902;2023-07-29T03:06:38;7.18;;;2.97;;
30697;SDS011;17448;47.200;10.902;2023-07-29T03:09:05;4.78;;;2.72;;
30697;SDS011;17448;47.200;10.902;2023-07-29T03:11:31;4.10;;;2.70;;
30697;SDS011;17448;47.200;10.902;2023-07-29T03:13:57;4.43;;;2.65;;
30697;SDS011;17448;47.200;10.902;2023-07-29T03:16:24;4.05;;;2.50;;
30697;SDS011;17448;47.200;10.902;2023-07-29T03:18:54;4.63;;;2.30;;
30697;SDS011;17448;47.200;10.902;2023-07-29T03:21:20;5.22;;;3.50;;
30697;SDS011;17448;47.200;10.902;2023-07-29T03:23:46;7.80;;;3.45;;
30697;SDS011;17448;47.200;10.902;2023-07-29T03:26:12;5.22;;;2.83;;
30697;SDS011;17448;47.200;10.902;2023-07-29T03:28:40;5.53;;;3.08;;
30697;SDS011;17448;47.200;10.902;2023-07-29T03:31:07;5.38;;;2.95;;
30697;SDS011;17448;47.200;10.902;2023-07-29T03:33:34;4.70;;;2.47;;
30697;SDS011;17448;47.200;10.902;2023-07-29T03:36:00;4.50;;;2.83;;
30697;SDS011;17448;47.200;10.902;2023-07-29T03:38:26;4.78;;;2.95;;
30697;SDS011;17448;47.200;10.902;2023-07-29T03:40:53;4.18;;;2.97;;
30697;SDS011;17448;47.200;10.902;2023-07-29T03:43:19;6.15;;;3.10;;
30697;SDS011;17448;47.200;10.902;2023-07-29T03:45:45;7.63;;;2.85;;
30697;SDS011;17448;47.200;10.902;2023-07-29T03:48:12;8.63;;;2.90;;
30697;SDS011;17448;47.200;10.902;2023-07-29T03:50:38;4.57;;;2.78;;
30697;SDS011;17448;47.200;10.902;2023-07-29T03:53:05;12.50;;;3.40;;
30697;SDS011;17448;47.200;10.902;2023-07-29T03:55:32;5.63;;;2.80;;
30697;SDS011;17448;47.200;10.902;2023-07-29T03:57:58;5.07;;;3.03;;
30697;SDS011;17448;47.200;10.902;2023-07-29T04:00:25;3.72;;;2.38;;
30697;SDS011;17448;47.200;10.902;2023-07-29T04:02:52;4.00;;;2.80;;
30697;SDS011;17448;47.200;10.902;2023-07-29T04:05:18;4.50;;;3.10;;
30697;SDS011;17448;47.200;10.902;2023-07-29T04:07:45;6.53;;;3.05;;
30697;SDS011;17448;47.200;10.902;2023-07-29T04:10:11;4.43;;;3.00;;
30697;SDS011;17448;47.200;10.902;2023-07-29T04:12:37;7.00;;;3.47;;
30697;SDS011;17448;47.200;10.902;2023-07-29T04:15:04;6.63;;;2.90;;
30697;SDS011;17448;47.200;10.902;2023-07-29T04:17:30;5.55;;;3.13;;
30697;SDS011;17448;47.200;10.902;2023-07-29T04:19:57;3.45;;;2.50;;
30697;SDS011;17448;47.200;10.902;2023-07-29T04:22:28;7.10;;;3.20;;
30697;SDS011;17448;47.200;10.902;2023-07-29T04:24:55;5.93;;;3.20;;
30697;SDS011;17448;47.200;10.902;2023-07-29T04:27:21;8.10;;;3.08;;
30697;SDS011;17448;47.200;10.902;2023-07-29T04:29:47;4.47;;;2.83;;
30697;SDS011;17448;47.200;10.902;2023-07-29T04:32:14;9.00;;;3.53;;
30697;SDS011;17448;47.200;10.902;2023-07-29T04:34:41;5.03;;;2.83;;
30697;SDS011;17448;47.200;10.902;2023-07-29T04:37:07;3.95;;;2.78;;
30697;SDS011;17448;47.200;10.902;2023-07-29T04:39:33;11.20;;;3.88;;
30697;SDS011;17448;47.200;10.902;2023-07-29T04:42:00;8.23;;;3.60;;
30697;SDS011;17448;47.200;10.902;2023-07-29T04:44:26;9.80;;;3.25;;
30697;SDS011;17448;47.200;10.902;2023-07-29T04:46:52;4.35;;;2.83;;
30697;SDS011;17448;47.200;10.902;2023-07-29T04:49:19;4.07;;;2.72;;
30697;SDS011;17448;47.200;10.902;2023-07-29T04:51:45;4.22;;;3.10;;
30697;SDS011;17448;47.200;10.902;2023-07-29T04:54:11;10.30;;;3.72;;
30697;SDS011;17448;47.200;10.902;2023-07-29T04:56:37;5.40;;;3.50;;
30697;SDS011;17448;47.200;10.902;2023-07-29T04:59:03;5.38;;;3.60;;
30697;SDS011;17448;47.200;10.902;2023-07-29T05:01:29;6.85;;;3.10;;
30697;SDS011;17448;47.200;10.902;2023-07-29T05:03:56;7.07;;;3.10;;
30697;SDS011;17448;47.200;10.902;2023-07-29T05:06:22;6.00;;;3.10;;
30697;SDS011;17448;47.200;10.902;2023-07-29T05:08:48;7.47;;;3.53;;
30697;SDS011;17448;47.200;10.902;2023-07-29T05:11:15;9.93;;;3.88;;
30697;SDS011;17448;47.200;10.902;2023-07-29T05:13:41;5.57;;;3.17;;
30697;SDS011;17448;47.200;10.902;2023-07-29T05:16:09;4.75;;;3.28;;
30697;SDS011;17448;47.200;10.902;2023-07-29T05:18:36;5.43;;;3.22;;
30697;SDS011;17448;47.200;10.902;2023-07-29T05:21:03;7.07;;;3.38;;
30697;SDS011;17448;47.200;10.902;2023-07-29T05:23:29;8.82;;;4.00;;
30697;SDS011;17448;47.200;10.902;2023-07-29T05:25:56;4.30;;;3.10;;
30697;SDS011;17448;47.200;10.902;2023-07-29T05:28:22;4.93;;;3.30;;
30697;SDS011;17448;47.200;10.902;2023-07-29T05:30:48;4.45;;;3.28;;
30697;SDS011;17448;47.200;10.902;2023-07-29T05:33:15;6.13;;;3.47;;
30697;SDS011;17448;47.200;10.902;2023-07-29T05:35:41;5.55;;;3.65;;
30697;SDS011;17448;47.200;10.902;2023-07-29T05:38:08;5.65;;;3.15;;
30697;SDS011;17448;47.200;10.902;2023-07-29T05:40:34;7.45;;;3.55;;
30697;SDS011;17448;47.200;10.902;2023-07-29T05:43:01;6.90;;;3.45;;
30697;SDS011;17448;47.200;10.902;2023-07-29T05:45:28;10.20;;;4.97;;
30697;SDS011;17448;47.200;10.902;2023-07-29T05:47:56;8.68;;;3.95;;
30697;SDS011;17448;47.200;10.902;2023-07-29T05:50:22;8.63;;;3.67;;
30697;SDS011;17448;47.200;10.902;2023-07-29T05:52:49;6.57;;;3.25;;
30697;SDS011;17448;47.200;10.902;2023-07-29T05:55:15;5.82;;;3.47;;
30697;SDS011;17448;47.200;10.902;2023-07-29T05:57:41;11.52;;;3.65;;
30697;SDS011;17448;47.200;10.902;2023-07-29T06:00:08;7.55;;;3.90;;
30697;SDS011;17448;47.200;10.902;2023-07-29T06:02:40;7.88;;;3.65;;
30697;SDS011;17448;47.200;10.902;2023-07-29T06:05:09;5.65;;;3.55;;
30697;SDS011;17448;47.200;10.902;2023-07-29T06:07:35;5.72;;;3.20;;
30697;SDS011;17448;47.200;10.902;2023-07-29T06:10:02;5.50;;;3.30;;
30697;SDS011;17448;47.200;10.902;2023-07-29T06:12:28;5.40;;;3.15;;
30697;SDS011;17448;47.200;10.902;2023-07-29T06:14:54;10.55;;;3.38;;
30697;SDS011;17448;47.200;10.902;2023-07-29T06:17:20;9.10;;;3.63;;
30697;SDS011;17448;47.200;10.902;2023-07-29T06:19:46;8.23;;;3.60;;
30697;SDS011;17448;47.200;10.902;2023-07-29T06:22:13;5.63;;;3.15;;
30697;SDS011;17448;47.200;10.902;2023-07-29T06:24:39;5.05;;;3.30;;
30697;SDS011;17448;47.200;10.902;2023-07-29T06:27:05;4.80;;;3.60;;
30697;SDS011;17448;47.200;10.902;2023-07-29T06:29:32;4.45;;;3.97;;
30697;SDS011;17448;47.200;10.902;2023-07-29T06:31:58;5.13;;;3.50;;
30697;SDS011;17448;47.200;10.902;2023-07-29T06:34:24;6.82;;;3.60;;
30697;SDS011;17448;47.200;10.902;2023-07-29T06:36:50;5.95;;;3.90;;
30697;SDS011;17448;47.200;10.902;2023-07-29T06:39:17;6.82;;;3.33;;
30697;SDS011;17448;47.200;10.902;2023-07-29T06:41:43;4.10;;;2.88;;
30697;SDS011;17448;47.200;10.902;2023-07-29T06:44:12;5.03;;;3.28;;
30697;SDS011;17448;47.200;10.902;2023-07-29T06:46:38;6.90;;;3.35;;
30697;SDS011;17448;47.200;10.902;2023-07-29T06:49:05;3.95;;;3.10;;
30697;SDS011;17448;47.200;10.902;2023-07-29T06:51:31;6.75;;;3.17;;
30697;SDS011;17448;47.200;10.902;2023-07-29T06:54:00;6.65;;;4.00;;
30697;SDS011;17448;47.200;10.902;2023-07-29T06:56:26;4.40;;;3.03;;
30697;SDS011;17448;47.200;10.902;2023-07-29T06:58:52;5.07;;;3.00;;
30697;SDS011;17448;47.200;10.902;2023-07-29T07:01:18;6.72;;;3.33;;
30697;SDS011;17448;47.200;10.902;2023-07-29T07:03:44;4.00;;;3.00;;
30697;SDS011;17448;47.200;10.902;2023-07-29T07:06:11;5.05;;;3.60;;
30697;SDS011;17448;47.200;10.902;2023-07-29T07:08:37;4.85;;;3.00;;
30697;SDS011;17448;47.200;10.902;2023-07-29T07:11:03;5.45;;;3.10;;
30697;SDS011;17448;47.200;10.902;2023-07-29T07:13:29;5.90;;;3.13;;
30697;SDS011;17448;47.200;10.902;2023-07-29T07:15:56;8.80;;;3.72;;
30697;SDS011;17448;47.200;10.902;2023-07-29T07:18:22;4.75;;;3.45;;
30697;SDS011;17448;47.200;10.902;2023-07-29T07:20:48;4.95;;;3.35;;
30697;SDS011;17448;47.200;10.902;2023-07-29T07:23:15;5.30;;;3.20;;
30697;SDS011;17448;47.200;10.902;2023-07-29T07:25:41;4.93;;;3.65;;
30697;SDS011;17448;47.200;10.902;2023-07-29T07:30:42;4.57;;;3.28;;
30697;SDS011;17448;47.200;10.902;2023-07-29T07:33:08;4.82;;;3.63;;
30697;SDS011;17448;47.200;10.902;2023-07-29T07:35:35;5.40;;;3.20;;
30697;SDS011;17448;47.200;10.902;2023-07-29T07:38:01;6.05;;;3.30;;
30697;SDS011;17448;47.200;10.902;2023-07-29T07:40:30;6.93;;;3.67;;
30697;SDS011;17448;47.200;10.902;2023-07-29T07:42:57;5.72;;;3.25;;
30697;SDS011;17448;47.200;10.902;2023-07-29T07:45:23;3.72;;;2.80;;
30697;SDS011;17448;47.200;10.902;2023-07-29T07:47:51;5.28;;;3.38;;
30697;SDS011;17448;47.200;10.902;2023-07-29T07:50:18;4.63;;;3.25;;
30697;SDS011;17448;47.200;10.902;2023-07-29T07:52:44;4.38;;;3.00;;
30697;SDS011;17448;47.200;10.902;2023-07-29T07:55:10;5.00;;;3.03;;
30697;SDS011;17448;47.200;10.902;2023-07-29T07:57:36;3.42;;;2.72;;
30697;SDS011;17448;47.200;10.902;2023-07-29T08:00:03;4.30;;;3.20;;
30697;SDS011;17448;47.200;10.902;2023-07-29T08:02:38;4.97;;;3.50;;
30697;SDS011;17448;47.200;10.902;2023-07-29T08:05:04;4.00;;;2.80;;
30697;SDS011;17448;47.200;10.902;2023-07-29T08:07:30;5.18;;;3.15;;
30697;SDS011;17448;47.200;10.902;2023-07-29T08:09:56;3.72;;;3.08;;
30697;SDS011;17448;47.200;10.902;2023-07-29T08:12:23;5.18;;;2.97;;
30697;SDS011;17448;47.200;10.902;2023-07-29T08:14:49;4.88;;;2.88;;
30697;SDS011;17448;47.200;10.902;2023-07-29T08:17:15;3.72;;;2.97;;
30697;SDS011;17448;47.200;10.902;2023-07-29T08:19:41;3.78;;;2.55;;
30697;SDS011;17448;47.200;10.902;2023-07-29T08:22:07;5.70;;;3.10;;
30697;SDS011;17448;47.200;10.902;2023-07-29T08:24:33;8.80;;;3.13;;
30697;SDS011;17448;47.200;10.902;2023-07-29T08:27:00;3.72;;;3.03;;
30697;SDS011;17448;47.200;10.902;2023-07-29T08:29:26;4.85;;;2.63;;
30697;SDS011;17448;47.200;10.902;2023-07-29T08:31:52;3.47;;;2.95;;
30697;SDS011;17448;47.200;10.902;2023-07-29T08:34:23;4.45;;;2.88;;
30697;SDS011;17448;47.200;10.902;2023-07-29T08:36:49;7.15;;;3.38;;
30697;SDS011;17448;47.200;10.902;2023-07-29T08:39:15;4.68;;;3.30;;
30697;SDS011;17448;47.200;10.902;2023-07-29T08:44:09;5.35;;;2.97;;
30697;SDS011;17448;47.200;10.902;2023-07-29T08:46:38;3.65;;;3.10;;
30697;SDS011;17448;47.200;10.902;2023-07-29T08:49:04;3.80;;;2.92;;
30697;SDS011;17448;47.200;10.902;2023-07-29T08:51:31;6.90;;;3.17;;
30697;SDS011;17448;47.200;10.902;2023-07-29T08:53:58;9.93;;;3.08;;
30697;SDS011;17448;47.200;10.902;2023-07-29T08:56:24;5.05;;;3.13;;
30697;SDS011;17448;47.200;10.902;2023-07-29T08:58:52;6.10;;;2.83;;
30697;SDS011;17448;47.200;10.902;2023-07-29T09:01:18;4.90;;;2.72;;
30697;SDS011;17448;47.200;10.902;2023-07-29T09:03:44;2.83;;;2.53;;
30697;SDS011;17448;47.200;10.902;2023-07-29T09:06:11;5.88;;;3.10;;
30697;SDS011;17448;47.200;10.902;2023-07-29T09:08:37;4.35;;;3.03;;
30697;SDS011;17448;47.200;10.902;2023-07-29T09:11:04;3.72;;;2.88;;
30697;SDS011;17448;47.200;10.902;2023-07-29T09:13:30;4.13;;;2.70;;
30697;SDS011;17448;47.200;10.902;2023-07-29T09:15:57;3.80;;;3.10;;
30697;SDS011;17448;47.200;10.902;2023-07-29T09:18:23;6.40;;;3.17;;
30697;SDS011;17448;47.200;10.902;2023-07-29T09:20:52;4.60;;;3.28;;
30697;SDS011;17448;47.200;10.902;2023-07-29T09:23:19;3.95;;;3.28;;
30697;SDS011;17448;47.200;10.902;2023-07-29T09:25:46;4.20;;;3.08;;
30697;SDS011;17448;47.200;10.902;2023-07-29T09:28:13;4.25;;;3.20;;
30697;SDS011;17448;47.200;10.902;2023-07-29T09:30:40;3.75;;;3.00;;
30697;SDS011;17448;47.200;10.902;2023-07-29T09:33:08;3.72;;;2.75;;
30697;SDS011;17448;47.200;10.902;2023-07-29T09:35:35;4.95;;;3.00;;
30697;SDS011;17448;47.200;10.902;2023-07-29T09:38:01;3.80;;;3.10;;
30697;SDS011;17448;47.200;10.902;2023-07-29T09:40:33;5.93;;;3.13;;
30697;SDS011;17448;47.200;10.902;2023-07-29T09:45:27;3.88;;;3.05;;
30697;SDS011;17448;47.200;10.902;2023-07-29T09:47:53;5.88;;;3.35;;
30697;SDS011;17448;47.200;10.902;2023-07-29T09:50:23;4.22;;;2.90;;
30697;SDS011;17448;47.200;10.902;2023-07-29T09:52:50;5.15;;;2.90;;
30697;SDS011;17448;47.200;10.902;2023-07-29T09:55:17;3.75;;;3.08;;
30697;SDS011;17448;47.200;10.902;2023-07-29T09:57:44;4.50;;;3.50;;
30697;SDS011;17448;47.200;10.902;2023-07-29T10:00:11;5.88;;;3.47;;
30697;SDS011;17448;47.200;10.902;2023-07-29T10:02:41;5.50;;;3.30;;
30697;SDS011;17448;47.200;10.902;2023-07-29T10:05:08;6.95;;;3.30;;
30697;SDS011;17448;47.200;10.902;2023-07-29T10:07:38;6.07;;;3.38;;
30697;SDS011;17448;47.200;10.902;2023-07-29T10:10:05;5.07;;;2.90;;
30697;SDS011;17448;47.200;10.902;2023-07-29T10:12:31;4.25;;;3.40;;
30697;SDS011;17448;47.200;10.902;2023-07-29T10:15:06;4.60;;;2.85;;
30697;SDS011;17448;47.200;10.902;2023-07-29T10:17:33;4.80;;;3.38;;
30697;SDS011;17448;47.200;10.902;2023-07-29T10:20:00;4.25;;;3.20;;
30697;SDS011;17448;47.200;10.902;2023-07-29T10:22:28;7.82;;;3.33;;
30697;SDS011;17448;47.200;10.902;2023-07-29T10:24:56;4.40;;;3.20;;
30697;SDS011;17448;47.200;10.902;2023-07-29T10:27:24;3.38;;;2.85;;
30697;SDS011;17448;47.200;10.902;2023-07-29T10:29:51;5.82;;;3.70;;
30697;SDS011;17448;47.200;10.902;2023-07-29T10:32:22;4.82;;;3.50;;
30697;SDS011;17448;47.200;10.902;2023-07-29T10:34:51;4.72;;;3.58;;
30697;SDS011;17448;47.200;10.902;2023-07-29T10:37:17;5.97;;;3.13;;
30697;SDS011;17448;47.200;10.902;2023-07-29T10:39:51;5.15;;;3.28;;
30697;SDS011;17448;47.200;10.902;2023-07-29T10:42:18;4.15;;;2.95;;
30697;SDS011;17448;47.200;10.902;2023-07-29T10:44:47;3.55;;;3.00;;
30697;SDS011;17448;47.200;10.902;2023-07-29T10:47:28;5.20;;;3.40;;
30697;SDS011;17448;47.200;10.902;2023-07-29T10:49:55;4.40;;;3.40;;
30697;SDS011;17448;47.200;10.902;2023-07-29T10:52:29;5.70;;;3.15;;
30697;SDS011;17448;47.200;10.902;2023-07-29T10:54:56;4.88;;;3.08;;
30697;SDS011;17448;47.200;10.902;2023-07-29T10:57:33;5.30;;;3.63;;
30697;SDS011;17448;47.200;10.902;2023-07-29T11:00:00;4.60;;;3.40;;
30697;SDS011;17448;47.200;10.902;2023-07-29T11:02:31;8.10;;;3.45;;
30697;SDS011;17448;47.200;10.902;2023-07-29T11:04:58;3.72;;;3.03;;
30697;SDS011;17448;47.200;10.902;2023-07-29T11:07:26;4.47;;;3.47;;
30697;SDS011;17448;47.200;10.902;2023-07-29T11:09:54;4.05;;;3.30;;
30697;SDS011;17448;47.200;10.902;2023-07-29T11:20:08;4.10;;;3.17;;
30697;SDS011;17448;47.200;10.902;2023-07-29T11:22:35;4.55;;;3.05;;
30697;SDS011;17448;47.200;10.902;2023-07-29T11:25:01;4.75;;;3.05;;
30697;SDS011;17448;47.200;10.902;2023-07-29T11:27:28;4.38;;;3.33;;
30697;SDS011;17448;47.200;10.902;2023-07-29T11:30:00;4.43;;;3.47;;
30697;SDS011;17448;47.200;10.902;2023-07-29T11:32:27;5.10;;;3.28;;
30697;SDS011;17448;47.200;10.902;2023-07-29T11:34:53;5.88;;;3.45;;
30697;SDS011;17448;47.200;10.902;2023-07-29T11:37:21;5.07;;;3.30;;
30697;SDS011;17448;47.200;10.902;2023-07-29T11:39:47;5.07;;;3.35;;
30697;SDS011;17448;47.200;10.902;2023-07-29T11:42:14;4.07;;;3.60;;
30697;SDS011;17448;47.200;10.902;2023-07-29T11:44:41;4.47;;;3.38;;
30697;SDS011;17448;47.200;10.902;2023-07-29T11:47:07;4.82;;;3.20;;
30697;SDS011;17448;47.200;10.902;2023-07-29T11:49:34;5.05;;;3.42;;
30697;SDS011;17448;47.200;10.902;2023-07-29T11:52:02;4.25;;;3.47;;
30697;SDS011;17448;47.200;10.902;2023-07-29T11:54:28;3.78;;;3.15;;
30697;SDS011;17448;47.200;10.902;2023-07-29T11:56:55;4.75;;;3.30;;
30697;SDS011;17448;47.200;10.902;2023-07-29T11:59:21;5.15;;;3.30;;
30697;SDS011;17448;47.200;10.902;2023-07-29T12:01:48;6.38;;;3.40;;
30697;SDS011;17448;47.200;10.902;2023-07-29T12:04:14;5.72;;;3.65;;
30697;SDS011;17448;47.200;10.902;2023-07-29T12:06:40;5.00;;;3.28;;
30697;SDS011;17448;47.200;10.902;2023-07-29T12:09:07;5.65;;;3.70;;
30697;SDS011;17448;47.200;10.902;2023-07-29T12:11:34;5.35;;;3.30;;
30697;SDS011;17448;47.200;10.902;2023-07-29T12:14:00;4.85;;;3.33;;
30697;SDS011;17448;47.200;10.902;2023-07-29T12:16:27;7.45;;;4.47;;
30697;SDS011;17448;47.200;10.902;2023-07-29T12:21:26;4.32;;;3.25;;
30697;SDS011;17448;47.200;10.902;2023-07-29T12:23:54;4.07;;;3.17;;
30697;SDS011;17448;47.200;10.902;2023-07-29T12:26:20;3.58;;;3.00;;
30697;SDS011;17448;47.200;10.902;2023-07-29T12:28:47;5.43;;;3.58;;
30697;SDS011;17448;47.200;10.902;2023-07-29T12:31:13;4.28;;;3.28;;
30697;SDS011;17448;47.200;10.902;2023-07-29T12:33:39;4.78;;;3.13;;
30697;SDS011;17448;47.200;10.902;2023-07-29T12:36:07;4.07;;;3.47;;
30697;SDS011;17448;47.200;10.902;2023-07-29T12:38:33;4.72;;;3.20;;
30697;SDS011;17448;47.200;10.902;2023-07-29T12:41:00;6.95;;;3.95;;
30697;SDS011;17448;47.200;10.902;2023-07-29T12:43:26;12.55;;;6.57;;
30697;SDS011;17448;47.200;10.902;2023-07-29T12:45:52;6.43;;;3.50;;
30697;SDS011;17448;47.200;10.902;2023-07-29T12:48:18;4.25;;;3.17;;
30697;SDS011;17448;47.200;10.902;2023-07-29T12:50:45;3.67;;;3.15;;
30697;SDS011;17448;47.200;10.902;2023-07-29T12:53:11;4.35;;;3.30;;
30697;SDS011;17448;47.200;10.902;2023-07-29T12:55:37;4.82;;;3.42;;
30697;SDS011;17448;47.200;10.902;2023-07-29T12:58:04;4.10;;;3.42;;
30697;SDS011;17448;47.200;10.902;2023-07-29T13:00:30;4.22;;;3.38;;
30697;SDS011;17448;47.200;10.902;2023-07-29T13:02:56;5.80;;;3.38;;
30697;SDS011;17448;47.200;10.902;2023-07-29T13:05:23;6.10;;;3.92;;
30697;SDS011;17448;47.200;10.902;2023-07-29T13:07:49;3.60;;;3.17;;
30697;SDS011;17448;47.200;10.902;2023-07-29T13:10:15;6.35;;;3.75;;
30697;SDS011;17448;47.200;10.902;2023-07-29T13:12:41;5.50;;;3.90;;
30697;SDS011;17448;47.200;10.902;2023-07-29T13:15:07;4.75;;;3.40;;
30697;SDS011;17448;47.200;10.902;2023-07-29T13:17:34;5.38;;;4.78;;
30697;SDS011;17448;47.200;10.902;2023-07-29T13:20:00;5.28;;;4.57;;
30697;SDS011;17448;47.200;10.902;2023-07-29T13:22:26;4.75;;;3.42;;
30697;SDS011;17448;47.200;10.902;2023-07-29T13:24:53;4.60;;;2.92;;
30697;SDS011;17448;47.200;10.902;2023-07-29T13:27:19;5.32;;;3.42;;
30697;SDS011;17448;47.200;10.902;2023-07-29T13:29:45;4.13;;;3.35;;
30697;SDS011;17448;47.200;10.902;2023-07-29T13:32:12;4.18;;;3.60;;
30697;SDS011;17448;47.200;10.902;2023-07-29T13:34:38;5.60;;;3.55;;
30697;SDS011;17448;47.200;10.902;2023-07-29T13:37:05;3.80;;;3.20;;
30697;SDS011;17448;47.200;10.902;2023-07-29T13:39:31;7.28;;;4.20;;
30697;SDS011;17448;47.200;10.902;2023-07-29T13:41:58;5.55;;;3.53;;
30697;SDS011;17448;47.200;10.902;2023-07-29T13:44:24;6.57;;;3.95;;
30697;SDS011;17448;47.200;10.902;2023-07-29T13:46:50;4.75;;;3.47;;
30697;SDS011;17448;47.200;10.902;2023-07-29T13:49:16;6.78;;;3.55;;
30697;SDS011;17448;47.200;10.902;2023-07-29T13:51:43;7.13;;;3.63;;
30697;SDS011;17448;47.200;10.902;2023-07-29T13:54:09;5.35;;;3.50;;
30697;SDS011;17448;47.200;10.902;2023-07-29T13:56:38;5.32;;;3.60;;
30697;SDS011;17448;47.200;10.902;2023-07-29T13:59:07;6.10;;;4.03;;
30697;SDS011;17448;47.200;10.902;2023-07-29T14:01:35;4.47;;;3.30;;
30697;SDS011;17448;47.200;10.902;2023-07-29T14:04:04;7.50;;;4.78;;
30697;SDS011;17448;47.200;10.902;2023-07-29T14:06:32;8.20;;;4.22;;
30697;SDS011;17448;47.200;10.902;2023-07-29T14:09:00;4.68;;;3.60;;
30697;SDS011;17448;47.200;10.902;2023-07-29T14:11:29;7.07;;;4.38;;
30697;SDS011;17448;47.200;10.902;2023-07-29T14:14:02;4.63;;;3.25;;
30697;SDS011;17448;47.200;10.902;2023-07-29T14:16:29;6.68;;;4.30;;
30697;SDS011;17448;47.200;10.902;2023-07-29T14:18:55;4.68;;;3.63;;
30697;SDS011;17448;47.200;10.902;2023-07-29T14:21:21;6.55;;;3.63;;
30697;SDS011;17448;47.200;10.902;2023-07-29T14:23:50;5.28;;;3.90;;
30697;SDS011;17448;47.200;10.902;2023-07-29T14:26:19;5.85;;;3.70;;
30697;SDS011;17448;47.200;10.902;2023-07-29T14:28:46;8.10;;;4.70;;
30697;SDS011;17448;47.200;10.902;2023-07-29T14:31:13;10.93;;;4.80;;
30697;SDS011;17448;47.200;10.902;2023-07-29T14:33:48;6.53;;;3.33;;
30697;SDS011;17448;47.200;10.902;2023-07-29T14:36:16;7.28;;;4.55;;
30697;SDS011;17448;47.200;10.902;2023-07-29T14:38:47;7.07;;;4.05;;
30697;SDS011;17448;47.200;10.902;2023-07-29T14:41:15;5.15;;;3.90;;
30697;SDS011;17448;47.200;10.902;2023-07-29T14:43:46;5.28;;;4.22;;
30697;SDS011;17448;47.200;10.902;2023-07-29T14:46:14;7.60;;;3.60;;
30697;SDS011;17448;47.200;10.902;2023-07-29T14:48:40;8.02;;;3.72;;
30697;SDS011;17448;47.200;10.902;2023-07-29T14:51:07;14.90;;;3.83;;
30697;SDS011;17448;47.200;10.902;2023-07-29T14:53:36;5.40;;;3.80;;